createdAt,value
2018-04-29T00:00:52.970Z,20.00
2018-04-29T00:03:22.663Z,17.70
2018-04-29T00:05:52.521Z,18.47
2018-04-29T00:08:22.409Z,27.08
2018-04-29T00:10:52.788Z,21.70
2018-04-29T00:13:23.279Z,20.30
2018-04-29T00:15:53.444Z,18.42
2018-04-29T00:18:24.177Z,18.40
2018-04-29T00:20:55.633Z,18.03
2018-04-29T00:23:25.807Z,18.17
2018-04-29T00:25:56.749Z,26.40
2018-04-29T00:28:26.608Z,17.02
2018-04-29T00:30:56.454Z,18.40
2018-04-29T00:33:26.367Z,18.60
2018-04-29T00:35:56.660Z,27.00
2018-04-29T00:38:26.671Z,18.90
2018-04-29T00:40:56.929Z,27.43
2018-04-29T00:43:27.801Z,24.20
2018-04-29T00:45:57.492Z,19.77
2018-04-29T00:48:27.346Z,18.73
2018-04-29T00:50:57.368Z,20.83
2018-04-29T00:53:28.168Z,19.45
2018-04-29T00:55:57.906Z,19.07
2018-04-29T00:58:28.736Z,19.83
2018-04-29T01:00:59.214Z,17.97
2018-04-29T01:03:29.106Z,22.70
2018-04-29T01:05:59.723Z,15.73
2018-04-29T01:08:30.365Z,16.77
2018-04-29T01:11:00.174Z,17.03
2018-04-29T01:13:30.788Z,21.15
2018-04-29T01:16:01.378Z,18.57
2018-04-29T01:18:31.100Z,18.70
2018-04-29T01:21:01.159Z,15.40
2018-04-29T01:23:30.869Z,20.42
2018-04-29T01:26:01.339Z,19.33
2018-04-29T01:28:31.420Z,21.40
2018-04-29T01:31:01.373Z,25.53
2018-04-29T01:33:31.178Z,24.52
2018-04-29T01:36:01.043Z,30.00
2018-04-29T01:38:31.698Z,24.60
2018-04-29T01:41:01.782Z,28.30
2018-04-29T01:43:31.917Z,29.83
2018-04-29T01:46:02.551Z,23.00
2018-04-29T01:48:33.993Z,29.37
2018-04-29T01:51:04.542Z,21.00
2018-04-29T01:53:34.246Z,22.83
2018-04-29T01:56:04.856Z,22.40
2018-04-29T01:58:35.484Z,19.63
2018-04-29T02:01:06.069Z,20.50
2018-04-29T02:03:35.913Z,22.63
2018-04-29T02:06:06.032Z,22.27
2018-04-29T02:08:36.769Z,23.45
2018-04-29T02:11:06.783Z,22.33
2018-04-29T02:13:36.615Z,23.87
2018-04-29T02:16:07.100Z,9.10
2018-04-29T02:18:36.837Z,11.70
2018-04-29T02:21:06.535Z,9.33
2018-04-29T02:23:36.935Z,6.57
2018-04-29T02:26:06.961Z,6.40
2018-04-29T02:28:37.211Z,7.60
2018-04-29T02:31:07.015Z,5.77
2018-04-29T02:33:36.764Z,9.30
2018-04-29T02:36:07.273Z,5.67
2018-04-29T02:38:36.987Z,5.53
2018-04-29T02:41:07.506Z,13.53
2018-04-29T02:43:37.351Z,7.33
2018-04-29T02:46:07.076Z,5.37
2018-04-29T02:48:36.766Z,5.30
2018-04-29T02:51:08.185Z,7.20
2018-04-29T02:53:37.868Z,9.80
2018-04-29T02:56:07.603Z,7.60
2018-04-29T02:58:37.310Z,4.62
2018-04-29T03:01:07.214Z,5.93
2018-04-29T03:03:36.970Z,5.85
2018-04-29T03:06:06.714Z,4.33
2018-04-29T03:08:37.411Z,5.97
2018-04-29T03:11:07.184Z,4.70
2018-04-29T03:13:37.502Z,3.57
2018-04-29T03:16:07.373Z,3.27
2018-04-29T03:18:37.078Z,7.57
2018-04-29T03:21:06.952Z,10.30
2018-04-29T03:23:36.694Z,6.27
2018-04-29T03:26:07.721Z,6.20
2018-04-29T03:28:38.215Z,8.60
2018-04-29T03:31:08.065Z,4.20
2018-04-29T03:33:38.686Z,5.87
2018-04-29T03:36:08.420Z,13.18
2018-04-29T03:38:38.931Z,9.10
2018-04-29T03:41:09.446Z,12.43
2018-04-29T03:43:39.141Z,3.83
2018-04-29T03:46:09.832Z,10.00
2018-04-29T03:48:39.598Z,2.57
2018-04-29T03:51:09.291Z,4.50
2018-04-29T03:53:39.760Z,7.20
2018-04-29T03:56:10.350Z,2.87
2018-04-29T03:58:51.213Z,2.10
2018-04-29T04:01:32.098Z,6.65
2018-04-29T04:04:05.196Z,1.60
2018-04-29T04:06:35.547Z,3.20
2018-04-29T04:09:07.969Z,2.30
2018-04-29T04:11:38.417Z,6.77
2018-04-29T04:14:09.197Z,4.30
2018-04-29T04:16:39.000Z,2.30
2018-04-29T04:19:09.543Z,4.83
2018-04-29T04:21:39.471Z,3.57
2018-04-29T04:24:09.413Z,5.00
2018-04-29T04:26:39.409Z,6.70
2018-04-29T04:29:09.997Z,4.07
2018-04-29T04:31:40.692Z,2.37
2018-04-29T04:34:10.624Z,3.20
2018-04-29T04:36:41.229Z,5.37
2018-04-29T04:39:11.605Z,13.20
2018-04-29T04:41:42.281Z,3.70
2018-04-29T04:44:12.070Z,3.10
2018-04-29T04:46:41.853Z,6.17
2018-04-29T04:49:12.557Z,4.10
2018-04-29T04:51:42.422Z,5.10
2018-04-29T04:54:12.359Z,5.73
2018-04-29T04:56:42.570Z,6.00
2018-04-29T04:59:12.450Z,11.10
2018-04-29T05:01:43.010Z,5.87
2018-04-29T05:04:12.806Z,6.60
2018-04-29T05:06:42.642Z,5.12
2018-04-29T05:09:12.791Z,4.03
2018-04-29T05:11:42.557Z,3.37
2018-04-29T05:14:12.394Z,5.97
2018-04-29T05:16:43.209Z,3.93
2018-04-29T05:19:13.263Z,4.07
2018-04-29T05:21:43.608Z,3.47
2018-04-29T05:24:13.632Z,7.07
2018-04-29T05:26:44.253Z,5.20
2018-04-29T05:29:14.602Z,8.67
2018-04-29T05:31:46.300Z,4.03
2018-04-29T05:34:17.793Z,3.70
2018-04-29T05:36:48.302Z,4.33
2018-04-29T05:39:19.428Z,11.83
2018-04-29T05:41:51.227Z,4.50
2018-04-29T05:44:22.039Z,6.27
2018-04-29T05:46:53.204Z,5.17
2018-04-29T05:49:24.155Z,5.78
2018-04-29T05:51:55.178Z,6.57
2018-04-29T05:54:25.118Z,6.37
2018-04-29T05:56:55.820Z,6.60
2018-04-29T05:59:25.756Z,8.77
2018-04-29T06:01:57.862Z,6.57
2018-04-29T06:04:27.832Z,6.80
2018-04-29T06:07:01.370Z,7.47
2018-04-29T06:09:31.429Z,7.33
2018-04-29T06:12:01.839Z,7.73
2018-04-29T06:14:31.699Z,7.70
2018-04-29T06:17:03.509Z,8.07
2018-04-29T06:19:33.833Z,8.90
2018-04-29T06:22:04.114Z,8.00
2018-04-29T06:24:35.526Z,10.95
2018-04-29T06:27:07.791Z,8.43
2018-04-29T06:29:38.263Z,9.07
2018-04-29T06:32:09.162Z,9.80
2018-04-29T06:34:43.674Z,8.20
2018-04-29T06:37:14.995Z,9.23
2018-04-29T06:39:46.519Z,9.80
2018-04-29T06:42:17.811Z,8.70
2018-04-29T06:44:49.014Z,9.20
2018-04-29T06:47:20.076Z,9.20
2018-04-29T06:49:51.158Z,8.33
2018-04-29T06:52:21.796Z,8.20
2018-04-29T06:54:52.118Z,7.80
2018-04-29T06:57:22.726Z,8.73
2018-04-29T06:59:55.087Z,8.83
2018-04-29T07:02:26.582Z,7.20
2018-04-29T07:04:59.089Z,10.20
2018-04-29T07:07:30.022Z,10.70
2018-04-29T07:10:00.391Z,7.50
2018-04-29T07:12:31.963Z,7.28
2018-04-29T07:15:04.378Z,8.93
2018-04-29T07:17:35.563Z,7.87
2018-04-29T07:20:06.970Z,8.50
2018-04-29T07:22:39.372Z,7.93
2018-04-29T07:25:09.849Z,8.80
2018-04-29T07:27:40.483Z,7.70
2018-04-29T07:30:13.512Z,10.07
2018-04-29T07:32:45.730Z,9.60
2018-04-29T07:35:17.207Z,9.50
2018-04-29T07:37:48.557Z,9.27
2018-04-29T07:40:22.717Z,10.00
2018-04-29T07:42:53.156Z,11.57
2018-04-29T07:45:23.646Z,10.32
2018-04-29T07:47:56.194Z,10.43
2018-04-29T07:50:27.515Z,10.73
2018-04-29T07:53:00.602Z,11.10
2018-04-29T07:55:31.429Z,11.20
2018-04-29T07:58:02.959Z,11.20
2018-04-29T08:00:36.538Z,15.10
2018-04-29T08:03:07.501Z,10.70
2018-04-29T08:05:37.525Z,13.70
2018-04-29T08:08:10.630Z,13.03
2018-04-29T08:10:43.783Z,16.63
2018-04-29T08:13:14.281Z,15.40
2018-04-29T08:15:46.180Z,14.20
2018-04-29T08:18:16.547Z,13.07
2018-04-29T08:20:48.997Z,16.80
2018-04-29T08:23:21.777Z,17.17
2018-04-29T08:25:55.673Z,14.90
2018-04-29T08:28:26.251Z,14.90
2018-04-29T08:30:57.726Z,14.43
2018-04-29T08:33:30.179Z,15.63
2018-04-29T08:36:00.726Z,19.37
2018-04-29T08:38:33.088Z,15.23
2018-04-29T08:41:05.566Z,15.47
2018-04-29T08:43:38.178Z,15.77
2018-04-29T08:46:13.811Z,16.30
2018-04-29T08:48:45.337Z,15.83
2018-04-29T08:51:17.131Z,15.23
2018-04-29T08:53:47.925Z,13.97
2018-04-29T08:56:19.362Z,14.00
2018-04-29T08:58:50.673Z,15.60
2018-04-29T09:01:22.295Z,14.03
2018-04-29T09:03:54.800Z,14.10
2018-04-29T09:06:25.461Z,11.00
2018-04-29T09:08:55.909Z,11.17
2018-04-29T09:11:28.904Z,10.70
2018-04-29T09:14:01.573Z,11.20
2018-04-29T09:16:33.042Z,11.35
2018-04-29T09:19:07.085Z,11.70
2018-04-29T09:21:43.847Z,13.00
2018-04-29T09:24:15.285Z,12.60
2018-04-29T09:26:47.502Z,13.23
2018-04-29T09:29:21.336Z,12.73
2018-04-29T09:31:53.716Z,12.03
2018-04-29T09:34:26.914Z,12.17
2018-04-29T09:36:58.505Z,14.23
2018-04-29T09:39:29.171Z,13.30
2018-04-29T09:41:59.928Z,13.40
2018-04-29T09:44:31.180Z,15.63
2018-04-29T09:47:02.599Z,12.87
2018-04-29T09:49:34.302Z,11.52
2018-04-29T09:52:05.429Z,13.77
2018-04-29T09:54:38.328Z,14.20
2018-04-29T09:57:08.797Z,15.43
2018-04-29T09:59:39.226Z,19.93
2018-04-29T10:02:14.906Z,29.33
2018-04-29T10:04:47.194Z,15.50
2018-04-29T10:07:18.930Z,16.03
2018-04-29T10:09:51.367Z,18.33
2018-04-29T10:12:23.487Z,17.00
2018-04-29T10:14:55.259Z,18.40
2018-04-29T10:17:27.564Z,19.40
2018-04-29T10:19:59.261Z,17.60
2018-04-29T10:22:30.448Z,21.80
2018-04-29T10:25:01.958Z,18.67
2018-04-29T10:27:33.253Z,20.30
2018-04-29T10:30:03.832Z,19.57
2018-04-29T10:32:36.989Z,25.20
2018-04-29T10:35:09.512Z,19.73
2018-04-29T10:37:40.860Z,21.77
2018-04-29T10:40:11.438Z,26.23
2018-04-29T10:42:42.089Z,21.00
2018-04-29T10:45:13.859Z,25.87
2018-04-29T10:47:45.059Z,22.45
2018-04-29T10:50:15.656Z,21.70
2018-04-29T10:52:47.849Z,24.67
2018-04-29T10:55:22.492Z,22.13
2018-04-29T10:57:54.396Z,21.40
2018-04-29T11:00:26.929Z,20.47
2018-04-29T11:02:57.508Z,21.37
2018-04-29T11:05:30.399Z,24.10
2018-04-29T11:08:01.239Z,25.40
2018-04-29T11:10:33.421Z,22.13
2018-04-29T11:13:03.795Z,25.37
2018-04-29T11:18:08.639Z,22.17
2018-04-29T11:20:39.192Z,23.12
2018-04-29T11:23:12.714Z,24.93
2018-04-29T11:25:43.379Z,25.30
2018-04-29T11:28:13.933Z,24.80
2018-04-29T11:30:44.497Z,22.58
2018-04-29T11:33:17.774Z,22.10
2018-04-29T11:35:49.123Z,21.73
2018-04-29T11:38:20.308Z,21.35
2018-04-29T11:40:50.773Z,26.97
2018-04-29T11:43:22.255Z,26.50
2018-04-29T11:45:56.684Z,22.77
2018-04-29T11:48:28.151Z,31.17
2018-04-29T11:50:58.642Z,25.67
2018-04-29T11:53:29.979Z,29.12
2018-04-29T11:56:01.827Z,23.73
2018-04-29T11:58:33.936Z,24.60
2018-04-29T12:01:04.973Z,23.57
2018-04-29T12:03:35.483Z,22.95
2018-04-29T12:06:07.923Z,25.17
2018-04-29T12:08:38.498Z,23.33
2018-04-29T12:11:15.073Z,22.27
2018-04-29T12:13:46.891Z,26.50
2018-04-29T12:16:17.494Z,24.17
2018-04-29T12:18:49.298Z,26.33
2018-04-29T12:21:21.229Z,23.40
2018-04-29T12:23:52.872Z,26.40
2018-04-29T12:26:24.319Z,23.93
2018-04-29T12:28:54.718Z,24.43
2018-04-29T12:31:25.875Z,25.57
2018-04-29T12:33:56.437Z,28.00
2018-04-29T12:36:27.391Z,22.90
2018-04-29T12:38:58.413Z,24.80
2018-04-29T12:41:29.363Z,27.30
2018-04-29T12:43:59.783Z,30.37
2018-04-29T12:46:30.329Z,26.05
2018-04-29T12:49:00.818Z,30.30
2018-04-29T12:51:31.267Z,35.53
2018-04-29T12:54:01.775Z,25.93
2018-04-29T12:56:32.413Z,24.60
2018-04-29T12:59:03.159Z,26.70
2018-04-29T13:01:33.700Z,25.53
2018-04-29T13:04:04.452Z,26.00
2018-04-29T13:06:34.989Z,28.00
2018-04-29T13:09:08.340Z,21.57
2018-04-29T13:11:38.919Z,36.17
2018-04-29T13:14:11.061Z,38.35
2018-04-29T13:16:43.582Z,26.27
2018-04-29T13:19:14.023Z,22.95
2018-04-29T13:21:44.774Z,19.98
2018-04-29T13:24:17.375Z,25.80
2018-04-29T13:26:49.258Z,21.58
2018-04-29T13:29:22.388Z,28.00
2018-04-29T13:31:52.950Z,25.93
2018-04-29T13:34:23.769Z,19.30
2018-04-29T13:36:54.215Z,34.83
2018-04-29T13:39:26.078Z,29.33
2018-04-29T13:41:57.937Z,29.47
2018-04-29T13:44:30.051Z,24.37
2018-04-29T13:47:01.918Z,18.23
2018-04-29T13:49:32.471Z,19.63
2018-04-29T13:52:02.939Z,22.87
2018-04-29T13:54:33.641Z,24.12
2018-04-29T13:57:04.180Z,17.83
2018-04-29T13:59:37.392Z,18.08
2018-04-29T14:02:08.252Z,18.10
2018-04-29T14:04:40.167Z,25.05
2018-04-29T14:07:11.825Z,15.93
2018-04-29T14:09:43.694Z,17.00
2018-04-29T14:12:14.153Z,18.20
2018-04-29T14:14:46.312Z,23.30
2018-04-29T14:17:17.549Z,19.20
2018-04-29T14:19:49.914Z,27.15
2018-04-29T14:22:20.496Z,27.93
2018-04-29T14:24:51.317Z,18.13
2018-04-29T14:27:21.758Z,22.03
2018-04-29T14:29:53.713Z,18.87
2018-04-29T14:32:24.287Z,14.93
2018-04-29T14:34:54.749Z,18.80
2018-04-29T14:37:26.094Z,21.00
2018-04-29T14:39:57.323Z,22.13
2018-04-29T14:42:28.056Z,22.27
2018-04-29T14:45:01.027Z,29.53
2018-04-29T14:47:34.909Z,19.50
2018-04-29T14:50:05.557Z,22.17
2018-04-29T14:52:37.146Z,24.13
2018-04-29T14:55:08.632Z,19.67
2018-04-29T14:57:39.901Z,21.52
2018-04-29T15:00:10.556Z,18.60
2018-04-29T15:02:42.722Z,19.33
2018-04-29T15:05:14.554Z,19.80
2018-04-29T15:07:45.082Z,20.00
2018-04-29T15:10:16.816Z,20.30
2018-04-29T15:12:47.214Z,18.10
2018-04-29T15:15:18.502Z,26.37
2018-04-29T15:17:49.947Z,16.63
2018-04-29T15:20:23.951Z,21.17
2018-04-29T15:22:58.385Z,19.53
2018-04-29T15:25:28.811Z,22.77
2018-04-29T15:28:00.577Z,14.67
2018-04-29T15:30:31.197Z,20.70
2018-04-29T15:33:03.125Z,18.30
2018-04-29T15:35:36.656Z,24.20
2018-04-29T15:38:08.449Z,20.00
2018-04-29T15:40:38.862Z,19.93
2018-04-29T15:43:12.429Z,23.83
2018-04-29T15:45:43.136Z,17.63
2018-04-29T15:48:16.585Z,18.57
2018-04-29T15:50:49.688Z,16.62
2018-04-29T15:53:20.197Z,16.30
2018-04-29T15:55:51.110Z,16.10
2018-04-29T15:58:22.880Z,17.03
2018-04-29T16:03:31.383Z,17.63
2018-04-29T16:06:02.066Z,22.30
2018-04-29T16:08:34.083Z,14.43
2018-04-29T16:11:07.414Z,16.03
2018-04-29T16:13:39.054Z,14.27
2018-04-29T16:16:08.903Z,16.50
2018-04-29T16:18:38.630Z,13.17
2018-04-29T16:21:08.733Z,13.93
2018-04-29T16:23:38.407Z,17.25
2018-04-29T16:26:09.297Z,21.93
2018-04-29T16:28:39.134Z,15.73
2018-04-29T16:31:08.856Z,14.50
2018-04-29T16:33:38.622Z,19.00
2018-04-29T16:36:08.670Z,15.90
2018-04-29T16:38:38.487Z,18.12
2018-04-29T16:41:08.911Z,26.00
2018-04-29T16:43:39.559Z,26.53
2018-04-29T16:46:09.480Z,26.60
2018-04-29T16:48:40.072Z,23.77
2018-04-29T16:51:10.574Z,23.93
2018-04-29T16:53:40.321Z,27.53
2018-04-29T16:56:10.901Z,26.13
2018-04-29T16:58:40.747Z,30.92
2018-04-29T17:01:10.560Z,23.93
2018-04-29T17:03:41.162Z,31.97
2018-04-29T17:06:10.840Z,16.63
2018-04-29T17:08:42.805Z,30.90
2018-04-29T17:11:12.608Z,24.17
2018-04-29T17:13:42.281Z,19.70
2018-04-29T17:16:11.972Z,25.33
2018-04-29T17:18:41.790Z,18.87
2018-04-29T17:21:12.407Z,17.50
2018-04-29T17:23:42.067Z,17.45
2018-04-29T17:26:13.044Z,19.00
2018-04-29T17:28:42.884Z,16.80
2018-04-29T17:31:14.028Z,18.23
2018-04-29T17:33:43.705Z,19.40
2018-04-29T17:36:13.551Z,14.50
2018-04-29T17:38:43.228Z,18.87
2018-04-29T17:41:13.049Z,15.50
2018-04-29T17:43:42.762Z,20.27
2018-04-29T17:46:12.623Z,16.83
2018-04-29T17:48:44.131Z,13.33
2018-04-29T17:51:13.845Z,23.87
2018-04-29T17:53:43.684Z,18.23
2018-04-29T17:56:14.678Z,16.70
2018-04-29T17:58:45.337Z,15.80
2018-04-29T18:01:15.164Z,16.80
2018-04-29T18:03:44.845Z,22.00
2018-04-29T18:06:14.515Z,15.30
2018-04-29T18:08:44.386Z,13.90
2018-04-29T18:11:14.198Z,17.92
2018-04-29T18:13:44.010Z,24.10
2018-04-29T18:16:13.769Z,18.50
2018-04-29T18:18:43.522Z,14.40
2018-04-29T18:21:13.459Z,16.07
2018-04-29T18:23:43.172Z,22.67
2018-04-29T18:26:13.654Z,17.17
2018-04-29T18:28:43.365Z,23.70
2018-04-29T18:31:13.082Z,21.03
2018-04-29T18:33:43.718Z,26.13
2018-04-29T18:36:13.531Z,13.90
2018-04-29T18:38:43.339Z,16.93
2018-04-29T18:41:14.224Z,18.67
2018-04-29T18:43:44.849Z,21.40
2018-04-29T18:46:15.488Z,32.50
2018-04-29T18:48:45.327Z,21.20
2018-04-29T18:51:15.096Z,14.10
2018-04-29T18:53:44.888Z,26.23
2018-04-29T18:56:14.587Z,22.77
2018-04-29T18:58:44.309Z,17.97
2018-04-29T19:01:14.284Z,16.30
2018-04-29T19:03:45.147Z,14.47
2018-04-29T19:06:15.009Z,14.77
2018-04-29T19:08:44.763Z,14.03
2018-04-29T19:11:14.553Z,12.03
2018-04-29T19:13:44.640Z,12.37
2018-04-29T19:16:14.885Z,15.20
2018-04-29T19:18:45.109Z,15.18
2018-04-29T19:21:15.124Z,17.80
2018-04-29T19:23:45.194Z,15.35
2018-04-29T19:26:16.135Z,21.52
2018-04-29T19:28:45.838Z,29.70
2018-04-29T19:31:16.506Z,17.73
2018-04-29T19:33:46.923Z,10.97
2018-04-29T19:36:17.422Z,20.23
2018-04-29T19:38:47.308Z,11.30
2018-04-29T19:41:17.132Z,14.50
2018-04-29T19:43:47.000Z,20.37
2018-04-29T19:46:17.546Z,12.40
2018-04-29T19:48:47.339Z,14.53
2018-04-29T19:51:17.943Z,16.90
2018-04-29T19:53:47.666Z,22.67
2018-04-29T19:56:18.110Z,12.43
2018-04-29T19:58:48.573Z,16.37
2018-04-29T20:01:18.382Z,14.50
2018-04-29T20:03:48.223Z,12.50
2018-04-29T20:06:18.067Z,12.00
2018-04-29T20:08:48.509Z,12.90
2018-04-29T20:11:18.958Z,14.20
2018-04-29T20:13:48.641Z,12.13
2018-04-29T20:16:19.124Z,12.00
2018-04-29T20:18:48.980Z,13.97
2018-04-29T20:21:18.678Z,15.17
2018-04-29T20:23:49.266Z,16.90
2018-04-29T20:26:19.140Z,12.63
2018-04-29T20:28:48.997Z,13.80
2018-04-29T20:31:19.029Z,14.33
2018-04-29T20:33:48.730Z,24.13
2018-04-29T20:36:18.954Z,13.70
2018-04-29T20:38:49.423Z,13.90
2018-04-29T20:41:20.019Z,13.77
2018-04-29T20:43:49.708Z,12.93
2018-04-29T20:46:19.439Z,12.57
2018-04-29T20:48:50.389Z,13.43
2018-04-29T20:51:20.074Z,11.20
2018-04-29T20:53:50.135Z,15.35
2018-04-29T20:56:24.072Z,12.63
2018-04-29T20:58:53.920Z,10.27
2018-04-29T21:01:23.999Z,18.55
2018-04-29T21:03:53.816Z,22.93
2018-04-29T21:06:23.529Z,16.57
2018-04-29T21:08:53.405Z,13.40
2018-04-29T21:11:23.291Z,11.50
2018-04-29T21:13:53.302Z,11.50
2018-04-29T21:16:23.437Z,16.17
2018-04-29T21:18:53.165Z,14.23
2018-04-29T21:21:23.313Z,12.60
2018-04-29T21:23:52.970Z,10.27
2018-04-29T21:26:23.331Z,11.02
2018-04-29T21:28:53.021Z,10.73
2018-04-29T21:31:24.005Z,11.20
2018-04-29T21:33:54.514Z,21.53
2018-04-29T21:36:24.188Z,15.53
2018-04-29T21:38:53.994Z,17.73
2018-04-29T21:41:25.081Z,11.10
2018-04-29T21:43:54.899Z,13.90
2018-04-29T21:46:24.722Z,13.10
2018-04-29T21:48:54.529Z,13.27
2018-04-29T21:51:24.334Z,16.10
2018-04-29T21:53:54.139Z,11.27
2018-04-29T21:56:24.237Z,11.60
2018-04-29T21:58:54.828Z,12.20
2018-04-29T22:01:24.542Z,18.87
2018-04-29T22:03:54.395Z,18.97
2018-04-29T22:06:24.712Z,15.33
2018-04-29T22:08:55.169Z,14.03
2018-04-29T22:11:24.944Z,24.42
2018-04-29T22:13:55.420Z,12.70
2018-04-29T22:16:25.205Z,24.23
2018-04-29T22:18:55.027Z,12.37
2018-04-29T22:21:24.757Z,8.17
2018-04-29T22:23:55.245Z,6.40
2018-04-29T22:26:25.863Z,5.80
2018-04-29T22:28:56.325Z,11.60
2018-04-29T22:31:26.618Z,4.27
2018-04-29T22:33:57.208Z,5.90
2018-04-29T22:36:26.950Z,3.58
2018-04-29T22:38:56.779Z,2.23
2018-04-29T22:41:27.348Z,3.67
2018-04-29T22:43:57.199Z,10.00
2018-04-29T22:46:27.032Z,6.83
2018-04-29T22:48:57.466Z,8.97
2018-04-29T22:51:27.302Z,20.30
2018-04-29T22:53:57.294Z,23.53
2018-04-29T22:56:27.777Z,5.27
2018-04-29T22:58:57.454Z,5.07
2018-04-29T23:01:27.194Z,6.93
2018-04-29T23:03:56.998Z,2.50
2018-04-29T23:06:26.860Z,1.47
2018-04-29T23:08:56.739Z,4.00
2018-04-29T23:11:28.097Z,0.83
2018-04-29T23:13:57.795Z,4.40
2018-04-29T23:16:27.483Z,1.50
2018-04-29T23:18:58.095Z,4.70
2018-04-29T23:21:28.757Z,7.47
2018-04-29T23:23:58.570Z,3.63
2018-04-29T23:26:28.350Z,10.53
2018-04-29T23:28:58.186Z,3.23
2018-04-29T23:31:28.164Z,3.60
2018-04-29T23:33:58.120Z,1.47
2018-04-29T23:36:28.396Z,6.20
2018-04-29T23:38:58.463Z,1.03
2018-04-29T23:41:28.585Z,3.10
2018-04-29T23:43:59.620Z,5.65
2018-04-29T23:46:29.438Z,2.30
2018-04-29T23:48:59.288Z,4.23
2018-04-29T23:51:29.080Z,11.20
2018-04-29T23:54:00.113Z,3.00
2018-04-29T23:56:30.070Z,5.18
2018-04-29T23:59:00.509Z,3.00
